createdAt,value
2019-04-03T00:01:08.566Z,8.33
2019-04-03T00:03:38.681Z,10.20
2019-04-03T00:06:08.702Z,10.57
2019-04-03T00:08:38.979Z,9.73
2019-04-03T00:11:09.638Z,10.27
2019-04-03T00:13:42.198Z,10.23
2019-04-03T00:16:11.677Z,9.97
2019-04-03T00:18:41.720Z,10.50
2019-04-03T00:21:11.620Z,11.20
2019-04-03T00:23:41.564Z,10.93
2019-04-03T00:26:11.514Z,10.83
2019-04-03T00:28:41.767Z,11.63
2019-04-03T00:31:11.833Z,10.47
2019-04-03T00:33:41.812Z,10.07
2019-04-03T00:36:11.813Z,9.90
2019-04-03T00:38:41.703Z,9.77
2019-04-03T00:41:11.593Z,9.83
2019-04-03T00:43:41.389Z,9.50
2019-04-03T00:46:11.418Z,9.63
2019-04-03T00:48:41.485Z,8.70
2019-04-03T00:51:11.445Z,8.97
2019-04-03T00:53:41.439Z,9.80
2019-04-03T00:56:11.397Z,9.23
2019-04-03T00:58:43.456Z,9.70
2019-04-03T01:01:13.509Z,9.70
2019-04-03T01:03:43.490Z,8.67
2019-04-03T01:06:13.454Z,8.87
2019-04-03T01:08:43.431Z,8.30
2019-04-03T01:11:13.514Z,8.87
2019-04-03T01:13:43.570Z,8.43
2019-04-03T01:16:13.598Z,8.98
2019-04-03T01:18:43.818Z,8.37
2019-04-03T01:21:14.098Z,8.10
2019-04-03T01:23:44.356Z,8.80
2019-04-03T01:26:14.333Z,8.43
2019-04-03T01:28:44.250Z,8.67
2019-04-03T01:31:15.074Z,7.97
2019-04-03T01:33:47.074Z,8.43
2019-04-03T01:36:17.980Z,7.90
2019-04-03T01:38:49.762Z,7.83
2019-04-03T01:41:21.290Z,7.87
2019-04-03T01:43:53.397Z,7.77
2019-04-03T01:46:23.214Z,8.63
2019-04-03T01:48:53.099Z,7.47
2019-04-03T01:51:23.197Z,8.10
2019-04-03T01:53:53.164Z,8.83
2019-04-03T01:56:23.031Z,8.60
2019-04-03T01:58:53.284Z,7.47
2019-04-03T02:01:23.284Z,8.90
2019-04-03T02:03:53.869Z,8.45
2019-04-03T02:06:23.861Z,8.00
2019-04-03T02:08:53.835Z,8.93
2019-04-03T02:11:23.921Z,9.10
2019-04-03T02:13:54.894Z,8.47
2019-04-03T02:16:24.890Z,9.40
2019-04-03T02:18:55.973Z,8.37
2019-04-03T02:21:27.784Z,8.80
2019-04-03T02:23:58.031Z,7.97
2019-04-03T02:26:29.021Z,8.47
2019-04-03T02:28:58.914Z,7.50
2019-04-03T02:31:28.902Z,7.97
2019-04-03T02:34:01.129Z,8.80
2019-04-03T02:36:30.519Z,7.83
2019-04-03T02:39:00.537Z,7.77
2019-04-03T02:41:35.338Z,8.13
2019-04-03T02:44:04.118Z,7.97
2019-04-03T02:46:34.109Z,7.37
2019-04-03T02:49:04.155Z,8.07
2019-04-03T02:51:34.229Z,7.80
2019-04-03T02:54:05.721Z,7.43
2019-04-03T02:56:35.685Z,7.90
2019-04-03T02:59:05.666Z,8.73
2019-04-03T03:01:38.165Z,8.90
2019-04-03T03:04:08.540Z,8.93
2019-04-03T03:06:38.489Z,8.53
2019-04-03T03:09:08.615Z,8.07
2019-04-03T03:11:40.733Z,7.97
2019-04-03T03:14:12.428Z,8.13
2019-04-03T03:16:42.791Z,8.00
2019-04-03T03:19:13.765Z,8.37
2019-04-03T03:21:45.415Z,8.40
2019-04-03T03:24:15.741Z,7.27
2019-04-03T03:26:46.168Z,7.90
2019-04-03T03:29:20.099Z,7.77
2019-04-03T03:32:05.299Z,7.93
2019-04-03T03:34:46.306Z,8.13
2019-04-03T03:36:58.658Z,8.17
2019-04-03T03:39:25.100Z,7.87
2019-04-03T03:41:58.534Z,7.10
2019-04-03T03:44:29.051Z,8.27
2019-04-03T03:47:01.912Z,7.43
2019-04-03T03:49:31.659Z,7.93
2019-04-03T03:52:04.495Z,8.37
2019-04-03T03:54:34.008Z,8.60
2019-04-03T03:57:06.485Z,8.97
2019-04-03T03:59:36.961Z,8.90
2019-04-03T04:02:07.135Z,9.33
2019-04-03T04:04:37.356Z,8.57
2019-04-03T04:07:08.003Z,9.33
2019-04-03T04:09:38.118Z,9.70
2019-04-03T04:12:08.991Z,9.43
2019-04-03T04:14:49.815Z,10.30
2019-04-03T04:17:20.996Z,9.20
2019-04-03T04:19:50.998Z,9.20
2019-04-03T04:22:20.930Z,9.73
2019-04-03T04:24:51.167Z,10.07
2019-04-03T04:27:21.473Z,9.33
2019-04-03T04:29:51.637Z,9.90
2019-04-03T04:32:21.481Z,9.53
2019-04-03T04:34:51.446Z,9.83
2019-04-03T04:37:21.381Z,10.27
2019-04-03T04:39:51.389Z,10.88
2019-04-03T04:42:21.301Z,14.23
2019-04-03T04:44:51.440Z,10.68
2019-04-03T04:47:21.335Z,11.97
2019-04-03T04:49:53.115Z,11.70
2019-04-03T04:52:23.057Z,11.97
2019-04-03T04:54:53.222Z,13.90
2019-04-03T04:57:24.319Z,12.87
2019-04-03T04:59:54.272Z,13.53
2019-04-03T05:02:24.706Z,14.10
2019-04-03T05:04:55.873Z,14.43
2019-04-03T05:07:30.314Z,13.80
2019-04-03T05:09:59.590Z,13.90
2019-04-03T05:12:29.682Z,14.07
2019-04-03T05:14:59.814Z,13.30
2019-04-03T05:17:31.553Z,12.95
2019-04-03T05:20:01.744Z,13.33
2019-04-03T05:22:32.014Z,11.97
2019-04-03T05:25:02.337Z,12.67
2019-04-03T05:27:34.420Z,13.47
2019-04-03T05:30:06.082Z,13.17
2019-04-03T05:32:36.125Z,12.73
2019-04-03T05:35:06.943Z,13.50
2019-04-03T05:37:36.927Z,13.47
2019-04-03T05:40:07.075Z,13.40
2019-04-03T05:42:36.970Z,13.10
2019-04-03T05:45:07.080Z,14.33
2019-04-03T05:47:39.299Z,14.00
2019-04-03T05:50:09.060Z,14.17
2019-04-03T05:52:39.172Z,15.07
2019-04-03T05:55:09.697Z,13.70
2019-04-03T05:57:40.334Z,15.00
2019-04-03T06:00:10.761Z,14.63
2019-04-03T06:02:40.803Z,14.13
2019-04-03T06:05:12.740Z,15.27
2019-04-03T06:07:42.448Z,16.10
2019-04-03T06:10:12.606Z,16.50
2019-04-03T06:12:44.783Z,16.37
2019-04-03T06:15:14.714Z,15.50
2019-04-03T06:17:44.861Z,15.97
2019-04-03T06:20:15.170Z,15.70
2019-04-03T06:22:45.169Z,12.53
2019-04-03T06:25:15.311Z,14.37
2019-04-03T06:27:46.441Z,13.63
2019-04-03T06:30:17.754Z,14.57
2019-04-03T06:32:47.790Z,15.17
2019-04-03T06:35:17.840Z,11.50
2019-04-03T06:37:47.828Z,13.27
2019-04-03T06:40:18.062Z,16.07
2019-04-03T06:42:48.286Z,13.23
2019-04-03T06:45:19.003Z,14.03
2019-04-03T06:47:49.160Z,14.53
2019-04-03T06:50:19.363Z,15.70
2019-04-03T06:52:49.551Z,16.57
2019-04-03T06:55:19.582Z,16.40
2019-04-03T06:57:49.487Z,17.87
2019-04-03T07:00:19.509Z,17.27
2019-04-03T07:02:49.498Z,18.00
2019-04-03T07:05:19.865Z,19.00
2019-04-03T07:07:49.907Z,18.13
2019-04-03T07:10:25.634Z,19.10
2019-04-03T07:12:51.748Z,17.83
2019-04-03T07:15:24.061Z,17.17
2019-04-03T07:17:53.582Z,18.07
2019-04-03T07:20:23.965Z,16.53
2019-04-03T07:22:54.128Z,17.13
2019-04-03T07:25:24.169Z,17.80
2019-04-03T07:27:54.446Z,18.03
2019-04-03T07:30:24.564Z,17.57
2019-04-03T07:32:57.037Z,17.07
2019-04-03T07:35:26.328Z,17.12
2019-04-03T07:37:56.473Z,17.20
2019-04-03T07:40:26.582Z,17.73
2019-04-03T07:42:56.984Z,18.27
2019-04-03T07:45:28.282Z,18.15
2019-04-03T07:47:58.219Z,17.65
2019-04-03T07:50:28.228Z,16.23
2019-04-03T07:52:58.141Z,17.25
2019-04-03T07:55:28.875Z,18.07
2019-04-03T07:58:00.830Z,18.55
2019-04-03T08:00:32.133Z,17.90
2019-04-03T08:03:02.088Z,19.25
2019-04-03T08:05:32.320Z,18.95
2019-04-03T08:08:02.574Z,18.13
2019-04-03T08:10:32.545Z,17.67
2019-04-03T08:13:02.600Z,17.40
2019-04-03T08:15:32.546Z,18.80
2019-04-03T08:18:02.384Z,17.90
2019-04-03T08:20:32.406Z,19.83
2019-04-03T08:23:04.696Z,19.70
2019-04-03T08:25:34.083Z,18.90
2019-04-03T08:28:04.136Z,18.67
2019-04-03T08:30:34.082Z,19.98
2019-04-03T08:33:15.182Z,17.05
2019-04-03T08:35:36.119Z,18.57
2019-04-03T08:38:06.466Z,18.52
2019-04-03T08:40:36.436Z,19.10
2019-04-03T08:43:06.426Z,18.53
2019-04-03T08:45:38.489Z,19.12
2019-04-03T08:48:08.071Z,17.75
2019-04-03T08:50:38.072Z,18.82
2019-04-03T08:53:08.844Z,18.93
2019-04-03T08:55:39.774Z,19.02
2019-04-03T08:58:09.638Z,18.05
2019-04-03T09:00:39.695Z,17.98
2019-04-03T09:03:09.753Z,19.70
2019-04-03T09:05:39.766Z,19.73
2019-04-03T09:08:09.769Z,19.43
2019-04-03T09:10:39.946Z,28.95
2019-04-03T09:13:17.808Z,22.60
2019-04-03T09:15:41.790Z,21.87
2019-04-03T09:18:11.724Z,20.85
2019-04-03T09:20:43.369Z,22.93
2019-04-03T09:23:13.581Z,21.90
2019-04-03T09:25:43.824Z,22.48
2019-04-03T09:28:13.693Z,23.67
2019-04-03T09:30:43.706Z,23.90
2019-04-03T09:33:13.670Z,20.90
2019-04-03T09:35:43.914Z,20.48
2019-04-03T09:38:14.123Z,22.62
2019-04-03T09:40:47.335Z,22.20
2019-04-03T09:43:16.379Z,20.90
2019-04-03T09:45:46.446Z,20.90
2019-04-03T09:48:16.615Z,20.75
2019-04-03T09:50:47.297Z,18.48
2019-04-03T09:53:17.232Z,22.00
2019-04-03T09:55:47.105Z,21.60
2019-04-03T09:58:17.005Z,23.12
2019-04-03T10:00:47.922Z,23.83
2019-04-03T10:03:18.169Z,25.43
2019-04-03T10:05:48.689Z,23.70
2019-04-03T10:08:19.076Z,26.12
2019-04-03T10:10:49.243Z,23.25
2019-04-03T10:13:19.137Z,21.97
2019-04-03T10:15:49.124Z,23.75
2019-04-03T10:18:21.841Z,22.73
2019-04-03T10:20:50.862Z,23.50
2019-04-03T10:23:21.098Z,22.53
2019-04-03T10:25:52.925Z,23.95
2019-04-03T10:28:22.709Z,23.33
2019-04-03T10:30:53.600Z,24.00
2019-04-03T10:33:24.418Z,25.10
2019-04-03T10:35:54.815Z,24.60
2019-04-03T10:38:24.814Z,23.35
2019-04-03T10:40:56.356Z,24.83
2019-04-03T10:43:26.997Z,25.93
2019-04-03T10:45:57.376Z,26.80
2019-04-03T10:48:28.194Z,26.43
2019-04-03T10:50:59.675Z,25.37
2019-04-03T10:53:29.784Z,24.72
2019-04-03T10:56:00.619Z,25.50
2019-04-03T10:58:30.762Z,26.23
2019-04-03T11:01:01.149Z,23.15
2019-04-03T11:03:32.144Z,21.07
2019-04-03T11:06:02.370Z,22.70
2019-04-03T11:08:32.524Z,20.23
2019-04-03T11:11:04.448Z,17.60
2019-04-03T11:13:34.802Z,18.33
2019-04-03T11:16:05.196Z,18.87
2019-04-03T11:18:35.173Z,18.83
2019-04-03T11:21:05.212Z,15.60
2019-04-03T11:23:40.146Z,15.83
2019-04-03T11:26:06.958Z,15.17
2019-04-03T11:28:38.193Z,16.53
2019-04-03T11:31:09.598Z,16.07
2019-04-03T11:33:39.911Z,14.93
2019-04-03T11:36:10.069Z,13.63
2019-04-03T11:38:40.227Z,13.83
2019-04-03T11:41:14.812Z,11.80
2019-04-03T11:43:42.154Z,13.23
2019-04-03T11:46:12.180Z,12.17
2019-04-03T11:48:43.841Z,8.70
2019-04-03T11:51:14.845Z,13.00
2019-04-03T11:53:46.002Z,12.20
2019-04-03T11:56:16.509Z,14.23
2019-04-03T11:58:46.837Z,12.93
2019-04-03T12:01:17.694Z,14.20
2019-04-03T12:03:50.388Z,14.77
2019-04-03T12:06:20.236Z,15.00
2019-04-03T12:08:51.312Z,15.17
2019-04-03T12:11:22.041Z,15.27
2019-04-03T12:13:52.083Z,14.63
2019-04-03T12:16:24.795Z,16.63
2019-04-03T12:18:54.987Z,15.93
2019-04-03T12:21:25.745Z,15.60
2019-04-03T12:23:58.798Z,14.07
2019-04-03T12:26:30.087Z,11.80
2019-04-03T12:29:02.198Z,16.10
2019-04-03T12:31:33.633Z,15.97
2019-04-03T12:34:06.600Z,15.60
2019-04-03T12:36:37.230Z,16.13
2019-04-03T12:39:14.292Z,14.97
2019-04-03T12:41:44.992Z,15.97
2019-04-03T12:44:14.934Z,16.67
2019-04-03T12:46:44.973Z,16.40
2019-04-03T12:49:15.205Z,14.33
2019-04-03T12:51:45.454Z,14.33
2019-04-03T12:54:15.519Z,16.00
2019-04-03T12:56:45.991Z,15.90
2019-04-03T12:59:16.066Z,17.20
2019-04-03T13:01:48.251Z,15.87
2019-04-03T13:04:18.053Z,15.67
2019-04-03T13:06:47.968Z,17.50
2019-04-03T13:09:18.392Z,16.93
2019-04-03T13:11:50.509Z,16.63
2019-04-03T13:14:25.092Z,14.27
2019-04-03T13:16:51.605Z,15.87
2019-04-03T13:19:23.742Z,16.30
2019-04-03T13:21:53.311Z,18.83
2019-04-03T13:24:23.540Z,17.13
2019-04-03T13:26:53.568Z,14.47
2019-04-03T13:29:23.818Z,16.90
2019-04-03T13:31:54.992Z,15.43
2019-04-03T13:34:25.393Z,15.17
2019-04-03T13:36:55.433Z,14.67
2019-04-03T13:39:25.414Z,12.63
2019-04-03T13:41:55.434Z,12.43
2019-04-03T13:44:26.935Z,12.30
2019-04-03T13:46:57.243Z,14.83
2019-04-03T13:49:29.764Z,14.40
2019-04-03T13:52:03.938Z,14.50
2019-04-03T13:54:30.810Z,13.33
2019-04-03T13:57:01.046Z,12.77
2019-04-03T13:59:31.779Z,11.67
2019-04-03T14:02:02.060Z,13.63
2019-04-03T14:04:32.375Z,13.57
2019-04-03T14:07:03.448Z,16.17
2019-04-03T14:09:33.838Z,14.33
2019-04-03T14:12:05.282Z,13.53
2019-04-03T14:14:35.512Z,12.00
2019-04-03T14:17:06.186Z,12.07
2019-04-03T14:19:43.218Z,10.87
2019-04-03T14:22:08.730Z,10.37
2019-04-03T14:24:44.955Z,10.65
2019-04-03T14:27:19.329Z,11.93
2019-04-03T14:29:42.232Z,10.97
2019-04-03T14:32:14.066Z,10.27
2019-04-03T14:34:43.795Z,10.37
2019-04-03T14:37:13.762Z,10.77
2019-04-03T14:39:43.650Z,11.00
2019-04-03T14:42:13.599Z,11.20
2019-04-03T14:44:45.667Z,10.57
2019-04-03T14:47:15.224Z,10.50
2019-04-03T14:49:45.361Z,12.10
2019-04-03T14:52:16.890Z,10.90
2019-04-03T14:54:46.969Z,11.00
2019-04-03T14:57:22.267Z,10.77
2019-04-03T14:59:48.829Z,10.47
2019-04-03T15:02:19.030Z,10.47
2019-04-03T15:04:49.071Z,11.23
2019-04-03T15:07:18.987Z,11.83
2019-04-03T15:09:48.908Z,11.10
2019-04-03T15:12:19.066Z,10.83
2019-04-03T15:14:49.285Z,11.67
2019-04-03T15:17:19.303Z,10.90
2019-04-03T15:19:50.163Z,11.53
2019-04-03T15:22:20.323Z,12.20
2019-04-03T15:24:50.150Z,12.07
2019-04-03T15:27:20.205Z,11.30
2019-04-03T15:29:50.511Z,10.37
2019-04-03T15:32:20.497Z,11.13
2019-04-03T15:34:51.183Z,11.40
2019-04-03T15:37:21.872Z,11.03
2019-04-03T15:39:56.959Z,11.07
2019-04-03T15:42:23.573Z,11.53
2019-04-03T15:44:53.827Z,11.63
2019-04-03T15:47:35.305Z,10.83
2019-04-03T15:49:58.360Z,11.20
2019-04-03T15:52:27.285Z,11.67
2019-04-03T15:54:57.373Z,11.23
2019-04-03T15:57:27.647Z,11.40
2019-04-03T15:59:58.033Z,11.47
2019-04-03T16:02:29.022Z,11.73
2019-04-03T16:05:00.043Z,12.83
2019-04-03T16:07:33.450Z,10.97
2019-04-03T16:10:03.923Z,12.53
2019-04-03T16:12:35.821Z,12.13
2019-04-03T16:15:08.570Z,12.80
2019-04-03T16:17:39.116Z,12.23
2019-04-03T16:20:10.445Z,11.50
2019-04-03T16:22:40.478Z,12.53
2019-04-03T16:25:11.127Z,11.93
2019-04-03T16:27:42.408Z,12.77
2019-04-03T16:30:15.528Z,13.37
2019-04-03T16:32:44.988Z,12.23
2019-04-03T16:35:15.383Z,13.87
2019-04-03T16:37:45.338Z,11.83
2019-04-03T16:40:15.924Z,13.60
2019-04-03T16:42:47.959Z,13.97
2019-04-03T16:45:18.095Z,12.33
2019-04-03T16:47:48.165Z,12.73
2019-04-03T16:50:18.152Z,16.17
2019-04-03T16:52:48.463Z,16.77
2019-04-03T16:55:19.443Z,18.53
2019-04-03T16:57:53.113Z,21.00
2019-04-03T17:00:22.774Z,18.85
2019-04-03T17:02:53.993Z,19.47
2019-04-03T17:05:24.542Z,27.60
2019-04-03T17:07:54.991Z,26.77
2019-04-03T17:10:25.546Z,24.27
2019-04-03T17:12:55.830Z,23.43
2019-04-03T17:15:26.101Z,20.27
2019-04-03T17:17:55.989Z,23.67
2019-04-03T17:20:26.011Z,25.77
2019-04-03T17:22:55.987Z,16.70
2019-04-03T17:25:27.792Z,13.17
2019-04-03T17:27:58.949Z,11.97
2019-04-03T17:30:29.618Z,13.27
2019-04-03T17:33:02.244Z,17.33
2019-04-03T17:35:31.355Z,19.30
2019-04-03T17:38:02.259Z,23.87
2019-04-03T17:40:32.236Z,32.30
2019-04-03T17:43:02.467Z,26.13
2019-04-03T17:45:32.423Z,16.77
2019-04-03T17:48:02.395Z,14.67
2019-04-03T17:50:32.375Z,18.93
2019-04-03T17:53:02.356Z,18.37
2019-04-03T17:55:32.494Z,15.53
2019-04-03T17:58:02.501Z,14.98
2019-04-03T18:00:32.515Z,17.17
2019-04-03T18:03:02.470Z,19.03
2019-04-03T18:05:33.722Z,16.33
2019-04-03T18:08:04.029Z,16.07
2019-04-03T18:10:34.352Z,15.87
2019-04-03T18:13:04.383Z,22.43
2019-04-03T18:15:34.427Z,24.03
2019-04-03T18:18:04.461Z,24.60
2019-04-03T18:20:34.494Z,22.67
2019-04-03T18:23:04.728Z,23.00
2019-04-03T18:25:34.708Z,29.63
2019-04-03T18:28:05.532Z,17.33
2019-04-03T18:30:35.541Z,15.37
2019-04-03T18:33:05.975Z,17.27
2019-04-03T18:35:36.281Z,16.83
2019-04-03T18:38:08.046Z,16.63
2019-04-03T18:40:37.844Z,16.40
2019-04-03T18:43:07.963Z,17.67
2019-04-03T18:45:38.206Z,20.20
2019-04-03T18:48:08.495Z,23.23
2019-04-03T18:50:38.370Z,25.87
2019-04-03T18:53:09.813Z,27.73
2019-04-03T18:55:40.302Z,36.00
2019-04-03T18:58:10.263Z,38.50
2019-04-03T19:00:40.578Z,29.13
2019-04-03T19:03:10.575Z,24.33
2019-04-03T19:05:42.539Z,18.03
2019-04-03T19:08:13.624Z,19.30
2019-04-03T19:10:43.783Z,19.27
2019-04-03T19:13:14.560Z,18.17
2019-04-03T19:15:44.721Z,18.13
2019-04-03T19:18:19.822Z,18.37
2019-04-03T19:20:47.392Z,20.30
2019-04-03T19:23:18.335Z,19.80
2019-04-03T19:25:48.574Z,19.90
2019-04-03T19:28:18.929Z,20.80
2019-04-03T19:30:48.800Z,20.20
2019-04-03T19:33:19.588Z,20.40
2019-04-03T19:35:49.830Z,19.90
2019-04-03T19:38:19.911Z,18.73
2019-04-03T19:40:50.005Z,20.23
2019-04-03T19:43:20.030Z,20.90
2019-04-03T19:45:51.771Z,21.20
2019-04-03T19:48:25.381Z,15.80
2019-04-03T19:50:54.498Z,13.90
2019-04-03T19:53:24.781Z,20.40
2019-04-03T19:55:55.369Z,13.13
2019-04-03T19:58:25.302Z,13.27
2019-04-03T20:00:55.373Z,12.40
2019-04-03T20:03:25.422Z,6.97
2019-04-03T20:05:55.655Z,8.93
2019-04-03T20:08:25.570Z,7.47
2019-04-03T20:10:55.707Z,8.18
2019-04-03T20:13:28.123Z,7.13
2019-04-03T20:15:58.756Z,6.90
2019-04-03T20:18:29.370Z,7.37
2019-04-03T20:20:59.355Z,7.67
2019-04-03T20:23:30.284Z,7.00
2019-04-03T20:26:04.476Z,6.73
2019-04-03T20:28:33.359Z,7.63
2019-04-03T20:31:05.349Z,7.57
2019-04-03T20:33:35.034Z,8.57
2019-04-03T20:36:05.000Z,7.23
2019-04-03T20:38:35.157Z,9.83
2019-04-03T20:41:05.115Z,7.90
2019-04-03T20:43:35.296Z,8.23
2019-04-03T20:46:05.518Z,7.73
2019-04-03T20:48:35.550Z,7.87
2019-04-03T20:51:08.734Z,8.93
2019-04-03T20:53:37.253Z,8.13
2019-04-03T20:56:07.228Z,8.67
2019-04-03T20:58:39.929Z,9.27
2019-04-03T21:01:08.787Z,9.63
2019-04-03T21:03:38.862Z,8.07
2019-04-03T21:06:09.858Z,8.10
2019-04-03T21:08:39.723Z,8.37
2019-04-03T21:11:10.750Z,7.97
2019-04-03T21:13:40.662Z,6.93
2019-04-03T21:16:10.665Z,7.53
2019-04-03T21:18:40.954Z,7.70
2019-04-03T21:21:10.924Z,9.00
2019-04-03T21:23:40.961Z,9.13
2019-04-03T21:26:11.245Z,9.03
2019-04-03T21:28:42.966Z,10.17
2019-04-03T21:31:13.294Z,10.43
2019-04-03T21:33:45.132Z,10.90
2019-04-03T21:36:15.190Z,11.47
2019-04-03T21:38:45.151Z,11.43
2019-04-03T21:41:15.131Z,11.10
2019-04-03T21:43:44.978Z,11.70
2019-04-03T21:46:14.851Z,11.63
2019-04-03T21:48:45.256Z,11.27
2019-04-03T21:51:15.306Z,16.20
2019-04-03T21:53:45.263Z,17.57
2019-04-03T21:56:15.636Z,17.43
2019-04-03T21:58:45.578Z,14.73
2019-04-03T22:01:22.431Z,13.63
2019-04-03T22:03:52.768Z,11.77
2019-04-03T22:06:23.090Z,10.43
2019-04-03T22:08:53.081Z,12.23
2019-04-03T22:11:23.102Z,11.63
2019-04-03T22:13:53.166Z,12.23
2019-04-03T22:16:23.517Z,11.07
2019-04-03T22:18:54.932Z,11.80
2019-04-03T22:21:25.517Z,12.33
2019-04-03T22:23:55.502Z,12.93
2019-04-03T22:26:25.456Z,13.17
2019-04-03T22:28:55.400Z,13.03
2019-04-03T22:31:25.276Z,14.00
2019-04-03T22:33:57.005Z,14.83
2019-04-03T22:36:27.260Z,12.27
2019-04-03T22:38:57.135Z,14.30
2019-04-03T22:41:27.111Z,14.00
2019-04-03T22:43:57.242Z,11.83
2019-04-03T22:46:27.146Z,12.77
2019-04-03T22:48:58.118Z,12.67
2019-04-03T22:51:29.005Z,13.07
2019-04-03T22:53:59.017Z,12.00
2019-04-03T22:56:28.830Z,12.63
2019-04-03T22:58:58.749Z,11.80
2019-04-03T23:01:29.858Z,11.43
2019-04-03T23:04:00.308Z,11.60
2019-04-03T23:06:31.250Z,11.20
2019-04-03T23:09:01.074Z,11.63
2019-04-03T23:11:32.555Z,11.40
2019-04-03T23:14:06.500Z,11.03
2019-04-03T23:16:36.392Z,11.00
2019-04-03T23:19:06.370Z,10.13
2019-04-03T23:21:36.359Z,9.00
2019-04-03T23:24:06.336Z,10.60
2019-04-03T23:26:36.347Z,10.73
2019-04-03T23:29:06.336Z,11.10
2019-04-03T23:31:36.572Z,10.70
2019-04-03T23:34:07.836Z,11.83
2019-04-03T23:36:38.160Z,11.90
2019-04-03T23:39:09.327Z,11.67
2019-04-03T23:41:39.536Z,12.27
2019-04-03T23:44:10.944Z,12.47
2019-04-03T23:46:41.396Z,10.27
2019-04-03T23:49:11.363Z,10.53
2019-04-03T23:51:41.447Z,8.53
2019-04-03T23:54:11.430Z,9.37
2019-04-03T23:56:42.884Z,10.10
2019-04-03T23:59:13.597Z,9.97
